createdAt,value
2022-09-12T00:00:07.746Z,11.02
2022-09-12T00:01:07.802Z,11.01
2022-09-12T00:02:07.736Z,11.01
2022-09-12T00:03:07.711Z,10.99
2022-09-12T00:04:07.698Z,11.01
2022-09-12T00:05:07.686Z,11.02
2022-09-12T00:06:07.663Z,11.02
2022-09-12T00:07:07.659Z,11.06
2022-09-12T00:08:07.659Z,11.03
2022-09-12T00:09:07.668Z,11.03
2022-09-12T00:10:07.639Z,11.03
2022-09-12T00:11:07.639Z,10.99
2022-09-12T00:12:07.609Z,10.98
2022-09-12T00:13:07.631Z,10.98
2022-09-12T00:14:07.598Z,10.96
2022-09-12T00:15:07.579Z,10.96
2022-09-12T00:16:07.606Z,10.95
2022-09-12T00:17:07.566Z,10.96
2022-09-12T00:18:07.549Z,10.98
2022-09-12T00:19:07.568Z,10.98
2022-09-12T00:20:07.543Z,10.95
2022-09-12T00:21:07.531Z,10.95
2022-09-12T00:22:07.506Z,10.92
2022-09-12T00:23:07.531Z,10.89
2022-09-12T00:24:07.502Z,10.91
2022-09-12T00:25:07.491Z,10.86
2022-09-12T00:26:07.468Z,10.81
2022-09-12T00:27:07.459Z,10.83
2022-09-12T00:28:07.448Z,10.80
2022-09-12T00:29:07.456Z,10.81
2022-09-12T00:30:07.419Z,10.80
2022-09-12T00:31:07.417Z,10.78
2022-09-12T00:32:07.400Z,10.78
2022-09-12T00:33:07.420Z,10.80
2022-09-12T00:34:07.399Z,10.80
2022-09-12T00:35:07.381Z,10.80
2022-09-12T00:36:07.372Z,10.80
2022-09-12T00:37:07.365Z,10.80
2022-09-12T00:38:07.344Z,10.81
2022-09-12T00:39:07.364Z,10.80
2022-09-12T00:40:07.395Z,10.81
2022-09-12T00:41:07.319Z,10.83
2022-09-12T00:42:07.307Z,10.78
2022-09-12T00:43:07.314Z,10.80
2022-09-12T00:44:07.288Z,10.80
2022-09-12T00:45:07.267Z,10.81
2022-09-12T00:46:07.291Z,10.81
2022-09-12T00:47:07.275Z,10.83
2022-09-12T00:48:07.240Z,10.81
2022-09-12T00:49:07.260Z,10.83
2022-09-12T00:50:07.208Z,10.83
2022-09-12T00:51:07.222Z,10.83
2022-09-12T00:52:07.186Z,10.84
2022-09-12T00:53:07.206Z,10.83
2022-09-12T00:54:07.181Z,10.84
2022-09-12T00:55:07.189Z,10.86
2022-09-12T00:56:07.163Z,10.88
2022-09-12T00:57:07.149Z,10.88
2022-09-12T00:58:07.133Z,10.89
2022-09-12T00:59:07.152Z,10.86
2022-09-12T01:00:07.124Z,10.86
2022-09-12T01:01:07.211Z,10.86
2022-09-12T01:02:07.190Z,10.88
2022-09-12T01:03:07.090Z,10.86
2022-09-12T01:04:07.103Z,10.88
2022-09-12T01:05:07.075Z,10.89
2022-09-12T01:06:07.047Z,10.91
2022-09-12T01:07:07.037Z,10.89
2022-09-12T01:08:07.041Z,10.92
2022-09-12T01:09:07.055Z,10.94
2022-09-12T01:10:07.008Z,10.92
2022-09-12T01:11:07.003Z,10.91
2022-09-12T01:12:06.997Z,10.88
2022-09-12T01:13:06.998Z,10.84
2022-09-12T01:14:06.967Z,10.88
2022-09-12T01:15:07.002Z,10.86
2022-09-12T01:16:06.965Z,10.89
2022-09-12T01:17:06.978Z,10.88
2022-09-12T01:18:06.917Z,10.92
2022-09-12T01:19:06.931Z,10.89
2022-09-12T01:20:06.903Z,10.86
2022-09-12T01:21:06.908Z,10.81
2022-09-12T01:22:06.910Z,10.80
2022-09-12T01:23:06.924Z,10.77
2022-09-12T01:24:06.876Z,10.71
2022-09-12T01:25:06.866Z,10.71
2022-09-12T01:26:06.842Z,10.66
2022-09-12T01:27:06.851Z,10.63
2022-09-12T01:28:06.860Z,10.60
2022-09-12T01:29:06.830Z,10.56
2022-09-12T01:30:06.795Z,10.53
2022-09-12T01:31:06.797Z,10.52
2022-09-12T01:32:06.840Z,10.55
2022-09-12T01:33:06.783Z,10.56
2022-09-12T01:34:06.751Z,10.55
2022-09-12T01:35:06.753Z,10.60
2022-09-12T01:36:06.752Z,10.59
2022-09-12T01:37:06.736Z,10.60
2022-09-12T01:38:06.754Z,10.56
2022-09-12T01:39:06.758Z,10.59
2022-09-12T01:40:06.785Z,10.58
2022-09-12T01:41:06.702Z,10.55
2022-09-12T01:42:06.681Z,10.53
2022-09-12T01:43:06.687Z,10.46
2022-09-12T01:44:06.677Z,10.47
2022-09-12T01:45:06.655Z,10.44
2022-09-12T01:46:06.703Z,10.42
2022-09-12T01:47:06.658Z,10.42
2022-09-12T01:48:06.627Z,10.40
2022-09-12T01:49:06.695Z,10.39
2022-09-12T01:50:06.594Z,10.37
2022-09-12T01:51:06.606Z,10.37
2022-09-12T01:52:06.572Z,10.40
2022-09-12T01:53:06.579Z,10.39
2022-09-12T01:54:06.558Z,10.37
2022-09-12T01:55:09.600Z,10.39
2022-09-12T01:56:06.537Z,10.37
2022-09-12T01:57:06.526Z,10.34
2022-09-12T01:58:06.521Z,10.34
2022-09-12T01:59:06.527Z,10.33
2022-09-12T02:00:06.514Z,10.28
2022-09-12T02:01:06.532Z,10.28
2022-09-12T02:02:06.513Z,10.32
2022-09-12T02:03:06.501Z,10.34
2022-09-12T02:04:06.549Z,10.36
2022-09-12T02:05:06.471Z,10.33
2022-09-12T02:06:06.459Z,10.28
2022-09-12T02:07:06.436Z,10.28
2022-09-12T02:08:06.447Z,10.25
2022-09-12T02:09:06.455Z,10.22
2022-09-12T02:10:06.426Z,10.22
2022-09-12T02:11:06.404Z,10.21
2022-09-12T02:12:06.414Z,10.19
2022-09-12T02:13:06.362Z,10.24
2022-09-12T02:14:06.365Z,10.21
2022-09-12T02:15:06.401Z,10.21
2022-09-12T02:16:06.380Z,10.18
2022-09-12T02:17:06.346Z,10.21
2022-09-12T02:18:06.318Z,10.21
2022-09-12T02:19:07.120Z,10.19
2022-09-12T02:20:06.290Z,10.21
2022-09-12T02:21:06.286Z,10.19
2022-09-12T02:22:06.258Z,10.19
2022-09-12T02:23:07.820Z,10.19
2022-09-12T02:24:06.278Z,10.18
2022-09-12T02:25:06.235Z,10.19
2022-09-12T02:26:06.225Z,10.19
2022-09-12T02:27:06.231Z,10.18
2022-09-12T02:28:06.209Z,10.18
2022-09-12T02:29:06.227Z,10.19
2022-09-12T02:30:06.191Z,10.22
2022-09-12T02:31:06.227Z,10.24
2022-09-12T02:32:06.163Z,10.22
2022-09-12T02:33:06.166Z,10.22
2022-09-12T02:34:06.148Z,10.22
2022-09-12T02:35:06.142Z,10.21
2022-09-12T02:36:06.120Z,10.21
2022-09-12T02:37:06.126Z,10.18
2022-09-12T02:38:06.095Z,10.17
2022-09-12T02:39:06.118Z,10.14
2022-09-12T02:40:06.119Z,10.12
2022-09-12T02:41:06.072Z,10.12
2022-09-12T02:42:06.065Z,10.10
2022-09-12T02:43:06.069Z,10.12
2022-09-12T02:44:06.059Z,10.10
2022-09-12T02:45:06.034Z,10.15
2022-09-12T02:46:06.105Z,10.15
2022-09-12T02:47:06.022Z,10.17
2022-09-12T02:48:06.000Z,10.18
2022-09-12T02:49:06.003Z,10.18
2022-09-12T02:50:06.686Z,10.19
2022-09-12T02:51:05.972Z,10.19
2022-09-12T02:52:05.968Z,10.22
2022-09-12T02:53:05.949Z,10.19
2022-09-12T02:54:05.937Z,10.18
2022-09-12T02:55:05.918Z,10.17
2022-09-12T02:56:05.934Z,10.15
2022-09-12T02:57:05.913Z,10.14
2022-09-12T02:58:05.918Z,10.07
2022-09-12T02:59:05.883Z,10.06
2022-09-12T03:00:05.882Z,10.04
2022-09-12T03:01:05.989Z,10.03
2022-09-12T03:02:05.913Z,10.01
2022-09-12T03:03:05.851Z,10.01
2022-09-12T03:04:05.879Z,10.01
2022-09-12T03:05:05.817Z,9.97
2022-09-12T03:06:05.831Z,10.00
2022-09-12T03:07:05.800Z,9.99
2022-09-12T03:08:05.805Z,9.97
2022-09-12T03:09:05.803Z,10.03
2022-09-12T03:10:05.772Z,10.03
2022-09-12T03:11:05.791Z,10.06
2022-09-12T03:12:05.781Z,10.03
2022-09-12T03:13:05.728Z,10.01
2022-09-12T03:14:05.768Z,10.03
2022-09-12T03:15:05.724Z,9.96
2022-09-12T03:16:05.803Z,9.94
2022-09-12T03:17:05.716Z,9.91
2022-09-12T03:18:05.700Z,9.88
2022-09-12T03:19:05.702Z,9.88
2022-09-12T03:20:05.687Z,9.89
2022-09-12T03:21:05.690Z,9.88
2022-09-12T03:22:05.662Z,9.91
2022-09-12T03:23:05.645Z,9.96
2022-09-12T03:24:05.662Z,9.94
2022-09-12T03:25:05.611Z,9.96
2022-09-12T03:26:05.637Z,9.93
2022-09-12T03:27:05.597Z,9.89
2022-09-12T03:28:05.610Z,9.88
2022-09-12T03:29:05.606Z,9.88
2022-09-12T03:30:05.571Z,9.85
2022-09-12T03:31:05.649Z,9.83
2022-09-12T03:32:05.554Z,9.85
2022-09-12T03:33:05.537Z,9.88
2022-09-12T03:34:05.605Z,9.85
2022-09-12T03:35:05.519Z,9.83
2022-09-12T03:36:05.527Z,9.86
2022-09-12T03:37:05.495Z,9.86
2022-09-12T03:38:05.490Z,9.86
2022-09-12T03:39:05.488Z,9.89
2022-09-12T03:40:05.529Z,9.91
2022-09-12T03:41:05.461Z,9.93
2022-09-12T03:42:05.476Z,9.93
2022-09-12T03:43:05.447Z,9.91
2022-09-12T03:44:05.479Z,9.86
2022-09-12T03:45:05.432Z,9.85
2022-09-12T03:46:05.421Z,9.86
2022-09-12T03:47:10.588Z,9.86
2022-09-12T03:48:05.392Z,9.88
2022-09-12T03:49:05.378Z,9.85
2022-09-12T03:50:05.379Z,9.83
2022-09-12T03:51:05.340Z,9.78
2022-09-12T03:52:05.338Z,9.73
2022-09-12T03:53:05.335Z,9.67
2022-09-12T03:54:05.375Z,9.67
2022-09-12T03:55:05.340Z,9.67
2022-09-12T03:56:05.304Z,9.64
2022-09-12T03:57:05.347Z,9.58
2022-09-12T03:58:05.295Z,9.58
2022-09-12T03:59:05.275Z,9.53
2022-09-12T04:00:05.352Z,9.52
2022-09-12T04:01:05.335Z,9.56
2022-09-12T04:02:05.285Z,9.58
2022-09-12T04:03:05.241Z,9.61
2022-09-12T04:04:05.206Z,9.63
2022-09-12T04:05:05.228Z,9.63
2022-09-12T04:06:05.189Z,9.67
2022-09-12T04:07:05.184Z,9.68
2022-09-12T04:08:05.183Z,9.71
2022-09-12T04:09:05.180Z,9.67
2022-09-12T04:10:05.191Z,9.66
2022-09-12T04:11:05.162Z,9.63
2022-09-12T04:12:05.169Z,9.64
2022-09-12T04:13:05.156Z,9.66
2022-09-12T04:14:05.322Z,9.63
2022-09-12T04:15:05.152Z,9.66
2022-09-12T04:16:05.095Z,9.67
2022-09-12T04:17:05.118Z,9.63
2022-09-12T04:18:06.149Z,9.60
2022-09-12T04:19:05.058Z,9.60
2022-09-12T04:20:05.105Z,9.61
2022-09-12T04:21:05.061Z,9.64
2022-09-12T04:22:05.025Z,9.60
2022-09-12T04:23:05.048Z,9.60
2022-09-12T04:24:05.026Z,9.61
2022-09-12T04:25:05.016Z,9.60
2022-09-12T04:26:05.008Z,9.56
2022-09-12T04:27:07.848Z,9.56
2022-09-12T04:28:04.986Z,9.50
2022-09-12T04:29:04.972Z,9.50
2022-09-12T04:30:04.959Z,9.48
2022-09-12T04:31:05.062Z,9.46
2022-09-12T04:32:04.961Z,9.45
2022-09-12T04:33:07.989Z,9.43
2022-09-12T04:34:04.931Z,9.40
2022-09-12T04:35:05.113Z,9.39
2022-09-12T04:36:04.931Z,9.35
2022-09-12T04:37:04.972Z,9.39
2022-09-12T04:38:04.885Z,9.42
2022-09-12T04:39:04.882Z,9.39
2022-09-12T04:40:04.914Z,9.38
2022-09-12T04:41:04.855Z,9.35
2022-09-12T04:42:04.841Z,9.32
2022-09-12T04:43:04.812Z,9.31
2022-09-12T04:44:04.811Z,9.34
2022-09-12T04:45:04.823Z,9.35
2022-09-12T04:46:04.861Z,9.34
2022-09-12T04:47:04.780Z,9.35
2022-09-12T04:48:04.780Z,9.38
2022-09-12T04:49:04.778Z,9.38
2022-09-12T04:50:04.747Z,9.35
2022-09-12T04:51:04.764Z,9.38
2022-09-12T04:52:04.764Z,9.39
2022-09-12T04:53:04.746Z,9.39
2022-09-12T04:54:04.723Z,9.38
2022-09-12T04:55:04.721Z,9.39
2022-09-12T04:56:04.685Z,9.38
2022-09-12T04:57:04.709Z,9.38
2022-09-12T04:58:04.675Z,9.38
2022-09-12T04:59:04.673Z,9.39
2022-09-12T05:00:07.236Z,9.38
2022-09-12T05:01:04.656Z,9.38
2022-09-12T05:02:04.899Z,9.40
2022-09-12T05:03:04.620Z,9.42
2022-09-12T05:04:04.609Z,9.40
2022-09-12T05:05:04.595Z,9.43
2022-09-12T05:06:04.658Z,9.43
2022-09-12T05:07:04.617Z,9.42
2022-09-12T05:08:04.598Z,9.40
2022-09-12T05:09:04.559Z,9.39
2022-09-12T05:10:04.547Z,9.39
2022-09-12T05:11:04.554Z,9.38
2022-09-12T05:12:05.521Z,9.35
2022-09-12T05:13:04.535Z,9.34
2022-09-12T05:14:05.548Z,9.34
2022-09-12T05:15:05.382Z,9.35
2022-09-12T05:16:04.487Z,9.32
2022-09-12T05:17:04.551Z,9.31
2022-09-12T05:18:04.457Z,9.32
2022-09-12T05:19:04.466Z,9.34
2022-09-12T05:20:04.462Z,9.32
2022-09-12T05:21:04.545Z,9.31
2022-09-12T05:22:04.439Z,9.31
2022-09-12T05:23:05.038Z,9.34
2022-09-12T05:24:04.399Z,9.32
2022-09-12T05:25:04.422Z,9.34
2022-09-12T05:26:04.367Z,9.38
2022-09-12T05:27:04.386Z,9.39
2022-09-12T05:28:04.369Z,9.40
2022-09-12T05:29:04.379Z,9.40
2022-09-12T05:30:04.965Z,9.40
2022-09-12T05:31:04.385Z,9.42
2022-09-12T05:32:04.338Z,9.45
2022-09-12T05:33:04.329Z,9.43
2022-09-12T05:34:04.327Z,9.45
2022-09-12T05:35:04.288Z,9.48
2022-09-12T05:36:04.272Z,9.45
2022-09-12T05:37:04.291Z,9.43
2022-09-12T05:38:04.263Z,9.45
2022-09-12T05:39:04.285Z,9.42
2022-09-12T05:40:04.319Z,9.40
2022-09-12T05:41:04.260Z,9.38
2022-09-12T05:42:04.230Z,9.38
2022-09-12T05:43:04.280Z,9.34
2022-09-12T05:44:04.209Z,9.35
2022-09-12T05:45:04.216Z,9.35
2022-09-12T05:46:04.273Z,9.34
2022-09-12T05:47:04.233Z,9.39
2022-09-12T05:48:04.170Z,9.40
2022-09-12T05:49:04.161Z,9.43
2022-09-12T05:50:04.166Z,9.43
2022-09-12T05:51:04.133Z,9.43
2022-09-12T05:52:04.123Z,9.43
2022-09-12T05:53:04.134Z,9.48
2022-09-12T05:54:04.097Z,9.48
2022-09-12T05:55:04.134Z,9.46
2022-09-12T05:56:04.080Z,9.46
2022-09-12T05:57:04.083Z,9.45
2022-09-12T05:58:04.066Z,9.48
2022-09-12T05:59:04.080Z,9.48
2022-09-12T06:00:04.048Z,9.49
2022-09-12T06:01:04.099Z,9.52
2022-09-12T06:02:04.139Z,9.53
2022-09-12T06:03:04.022Z,9.56
2022-09-12T06:04:04.026Z,9.57
2022-09-12T06:05:04.033Z,9.57
2022-09-12T06:06:04.032Z,9.57
2022-09-12T06:07:03.992Z,9.56
2022-09-12T06:08:03.946Z,9.57
2022-09-12T06:09:03.962Z,9.60
2022-09-12T06:10:03.944Z,9.58
2022-09-12T06:11:03.956Z,9.61
2022-09-12T06:12:03.958Z,9.61
2022-09-12T06:13:03.922Z,9.60
2022-09-12T06:14:03.900Z,9.61
2022-09-12T06:15:03.890Z,9.60
2022-09-12T06:16:03.875Z,9.58
2022-09-12T06:17:03.931Z,9.60
2022-09-12T06:18:03.862Z,9.57
2022-09-12T06:19:03.856Z,9.56
2022-09-12T06:20:03.841Z,9.53
2022-09-12T06:21:04.045Z,9.56
2022-09-12T06:22:03.838Z,9.56
2022-09-12T06:23:03.819Z,9.53
2022-09-12T06:24:03.807Z,9.53
2022-09-12T06:25:03.800Z,9.56
2022-09-12T06:26:03.805Z,9.56
2022-09-12T06:27:03.814Z,9.57
2022-09-12T06:28:03.764Z,9.57
2022-09-12T06:29:03.753Z,9.57
2022-09-12T06:30:03.737Z,9.58
2022-09-12T06:31:03.843Z,9.60
2022-09-12T06:32:03.717Z,9.61
2022-09-12T06:33:03.749Z,9.63
2022-09-12T06:34:03.702Z,9.66
2022-09-12T06:35:03.708Z,9.67
2022-09-12T06:36:03.673Z,9.73
2022-09-12T06:37:03.696Z,9.75
2022-09-12T06:38:03.910Z,9.73
2022-09-12T06:39:03.666Z,9.75
2022-09-12T06:40:03.672Z,9.76
2022-09-12T06:41:03.650Z,9.75
2022-09-12T06:42:03.625Z,9.75
2022-09-12T06:43:03.617Z,9.76
2022-09-12T06:44:03.638Z,9.78
2022-09-12T06:45:03.602Z,9.79
2022-09-12T06:46:03.650Z,9.81
2022-09-12T06:47:03.587Z,9.79
2022-09-12T06:48:03.558Z,9.82
2022-09-12T06:49:03.583Z,9.83
2022-09-12T06:50:03.539Z,9.86
2022-09-12T06:51:03.536Z,9.89
2022-09-12T06:52:03.544Z,9.91
2022-09-12T06:53:03.580Z,9.94
2022-09-12T06:54:03.504Z,9.93
2022-09-12T06:55:03.491Z,9.96
2022-09-12T06:56:03.472Z,9.99
2022-09-12T06:57:03.477Z,10.00
2022-09-12T06:58:03.444Z,10.04
2022-09-12T06:59:03.480Z,10.07
2022-09-12T07:00:03.426Z,10.10
2022-09-12T07:01:03.582Z,10.14
2022-09-12T07:02:03.483Z,10.15
2022-09-12T07:03:03.425Z,10.18
2022-09-12T07:04:03.424Z,10.22
2022-09-12T07:05:03.392Z,10.25
2022-09-12T07:06:03.381Z,10.26
2022-09-12T07:07:03.374Z,10.28
2022-09-12T07:08:03.633Z,10.33
2022-09-12T07:09:03.343Z,10.36
2022-09-12T07:10:03.352Z,10.39
2022-09-12T07:11:03.310Z,10.42
2022-09-12T07:12:03.309Z,10.44
2022-09-12T07:13:03.480Z,10.44
2022-09-12T07:14:03.315Z,10.46
2022-09-12T07:15:03.498Z,10.53
2022-09-12T07:16:03.303Z,10.52
2022-09-12T07:17:03.341Z,10.53
2022-09-12T07:18:03.276Z,10.56
2022-09-12T07:19:03.432Z,10.59
2022-09-12T07:20:03.266Z,10.58
2022-09-12T07:21:03.226Z,10.62
2022-09-12T07:22:03.203Z,10.62
2022-09-12T07:23:03.189Z,10.68
2022-09-12T07:24:03.194Z,10.73
2022-09-12T07:25:03.488Z,10.74
2022-09-12T07:26:03.202Z,10.77
2022-09-12T07:27:03.160Z,10.78
2022-09-12T07:28:03.216Z,10.80
2022-09-12T07:29:32.260Z,10.84
2022-09-12T07:30:03.152Z,10.89
2022-09-12T07:31:03.352Z,10.91
2022-09-12T07:32:03.151Z,10.95
2022-09-12T07:33:03.090Z,10.98
2022-09-12T07:34:03.092Z,11.01
2022-09-12T07:35:03.093Z,11.06
2022-09-12T07:36:03.110Z,11.09
2022-09-12T07:37:03.080Z,11.11
2022-09-12T07:38:03.060Z,11.13
2022-09-12T07:39:03.052Z,11.17
2022-09-12T07:40:03.185Z,11.21
2022-09-12T07:41:03.001Z,11.24
2022-09-12T07:42:03.039Z,11.25
2022-09-12T07:43:03.012Z,11.29
2022-09-12T07:44:03.011Z,11.35
2022-09-12T07:45:02.976Z,11.38
2022-09-12T07:46:03.048Z,11.39
2022-09-12T07:47:02.955Z,11.44
2022-09-12T07:48:02.991Z,11.44
2022-09-12T07:49:02.919Z,11.47
2022-09-12T07:50:02.923Z,11.52
2022-09-12T07:51:02.910Z,11.56
2022-09-12T07:52:02.900Z,11.61
2022-09-12T07:53:02.935Z,11.62
2022-09-12T07:54:02.880Z,11.64
2022-09-12T07:55:02.864Z,11.70
2022-09-12T07:56:03.112Z,11.74
2022-09-12T07:57:02.848Z,11.80
2022-09-12T07:58:02.873Z,11.83
2022-09-12T07:59:02.829Z,11.87
2022-09-12T08:00:02.832Z,11.90
2022-09-12T08:01:02.901Z,11.96
2022-09-12T08:02:02.850Z,12.01
2022-09-12T08:03:02.799Z,12.02
2022-09-12T08:04:02.818Z,12.05
2022-09-12T08:05:02.774Z,12.08
2022-09-12T08:06:03.145Z,12.13
2022-09-12T08:07:02.734Z,12.16
2022-09-12T08:08:02.733Z,12.21
2022-09-12T08:09:02.730Z,12.27
2022-09-12T08:10:02.746Z,12.33
2022-09-12T08:11:02.701Z,12.38
2022-09-12T08:12:02.696Z,12.42
2022-09-12T08:13:02.684Z,12.46
2022-09-12T08:14:02.689Z,12.49
2022-09-12T08:15:02.666Z,12.52
2022-09-12T08:16:02.725Z,12.60
2022-09-12T08:17:02.826Z,12.67
2022-09-12T08:18:02.813Z,12.74
2022-09-12T08:19:02.635Z,12.78
2022-09-12T08:20:02.610Z,12.82
2022-09-12T08:21:02.598Z,12.88
2022-09-12T08:22:02.603Z,12.92
2022-09-12T08:23:02.571Z,12.99
2022-09-12T08:24:02.607Z,13.07
2022-09-12T08:25:02.566Z,13.15
2022-09-12T08:26:05.939Z,13.21
2022-09-12T08:27:02.547Z,13.29
2022-09-12T08:28:02.546Z,13.36
2022-09-12T08:29:02.530Z,13.41
2022-09-12T08:30:02.510Z,13.47
2022-09-12T08:31:02.531Z,13.54
2022-09-12T08:32:02.465Z,13.61
2022-09-12T08:33:02.463Z,13.69
2022-09-12T08:34:02.505Z,13.79
2022-09-12T08:35:02.488Z,13.89
2022-09-12T08:36:02.517Z,14.01
2022-09-12T08:37:02.427Z,14.17
2022-09-12T08:38:02.432Z,14.34
2022-09-12T08:39:02.403Z,14.49
2022-09-12T08:40:02.486Z,14.67
2022-09-12T08:41:02.364Z,14.86
2022-09-12T08:42:02.444Z,15.09
2022-09-12T08:43:02.329Z,15.30
2022-09-12T08:44:02.359Z,15.48
2022-09-12T08:45:02.332Z,15.64
2022-09-12T08:46:02.401Z,15.78
2022-09-12T08:47:02.312Z,15.96
2022-09-12T08:48:02.464Z,16.12
2022-09-12T08:49:02.278Z,16.27
2022-09-12T08:50:02.296Z,16.42
2022-09-12T08:51:02.258Z,16.63
2022-09-12T08:52:02.278Z,16.77
2022-09-12T08:53:02.274Z,16.86
2022-09-12T08:54:02.232Z,16.95
2022-09-12T08:55:02.227Z,17.07
2022-09-12T08:56:02.220Z,17.25
2022-09-12T08:57:02.937Z,17.33
2022-09-12T08:58:02.234Z,17.41
2022-09-12T08:59:02.189Z,17.55
2022-09-12T09:00:02.231Z,17.67
2022-09-12T09:01:03.207Z,17.78
2022-09-12T09:02:02.218Z,17.92
2022-09-12T09:03:02.181Z,18.06
2022-09-12T09:04:02.136Z,18.18
2022-09-12T09:05:07.742Z,18.27
2022-09-12T09:06:02.129Z,18.36
2022-09-12T09:07:02.093Z,18.44
2022-09-12T09:08:02.125Z,18.47
2022-09-12T09:09:02.087Z,18.61
2022-09-12T09:10:10.428Z,18.68
2022-09-12T09:11:02.057Z,18.72
2022-09-12T09:12:02.052Z,18.82
2022-09-12T09:13:02.049Z,18.94
2022-09-12T09:14:05.145Z,19.01
2022-09-12T09:15:02.021Z,19.13
2022-09-12T09:16:02.033Z,19.17
2022-09-12T09:17:01.995Z,19.28
2022-09-12T09:18:02.006Z,19.39
2022-09-12T09:19:01.993Z,19.55
2022-09-12T09:20:01.982Z,19.69
2022-09-12T09:21:01.957Z,19.86
2022-09-12T09:22:01.987Z,20.02
2022-09-12T09:23:01.944Z,20.23
2022-09-12T09:24:01.949Z,20.42
2022-09-12T09:25:01.905Z,20.58
2022-09-12T09:26:01.917Z,20.80
2022-09-12T09:27:01.885Z,20.98
2022-09-12T09:28:01.925Z,21.19
2022-09-12T09:29:01.875Z,21.36
2022-09-12T09:30:02.025Z,21.42
2022-09-12T09:31:01.928Z,21.46
2022-09-12T09:32:01.873Z,21.57
2022-09-12T09:33:01.836Z,21.71
2022-09-12T09:34:01.870Z,21.91
2022-09-12T09:35:01.816Z,22.07
2022-09-12T09:36:01.849Z,22.23
2022-09-12T09:37:01.794Z,22.35
2022-09-12T09:38:01.804Z,22.47
2022-09-12T09:39:01.799Z,22.62
2022-09-12T09:40:01.840Z,22.78
2022-09-12T09:41:01.757Z,22.92
2022-09-12T09:42:01.758Z,22.99
2022-09-12T09:43:01.740Z,23.14
2022-09-12T09:44:01.790Z,23.26
2022-09-12T09:45:01.758Z,23.42
2022-09-12T09:46:01.748Z,23.53
2022-09-12T09:47:01.713Z,23.60
2022-09-12T09:48:01.706Z,23.67
2022-09-12T09:49:02.614Z,23.75
2022-09-12T09:50:01.729Z,23.83
2022-09-12T09:51:01.698Z,23.82
2022-09-12T09:52:01.678Z,23.86
2022-09-12T09:53:01.699Z,23.89
2022-09-12T09:54:01.684Z,23.95
2022-09-12T09:55:01.659Z,24.02
2022-09-12T09:56:01.652Z,24.08
2022-09-12T09:57:01.650Z,24.14
2022-09-12T09:58:01.658Z,24.26
2022-09-12T09:59:01.673Z,24.32
2022-09-12T10:00:01.654Z,24.41
2022-09-12T10:01:01.703Z,24.45
2022-09-12T10:02:01.679Z,24.37
2022-09-12T10:03:01.617Z,24.04
2022-09-12T10:04:01.599Z,23.60
2022-09-12T10:05:01.586Z,23.09
2022-09-12T10:06:01.570Z,22.72
2022-09-12T10:07:01.543Z,22.41
2022-09-12T10:08:01.541Z,22.14
2022-09-12T10:09:01.536Z,22.01
2022-09-12T10:10:01.545Z,21.90
2022-09-12T10:11:01.503Z,21.76
2022-09-12T10:12:01.502Z,21.60
2022-09-12T10:13:01.495Z,21.53
2022-09-12T10:14:01.509Z,21.46
2022-09-12T10:15:01.497Z,21.41
2022-09-12T10:16:01.527Z,21.34
2022-09-12T10:17:01.469Z,21.26
2022-09-12T10:18:01.463Z,21.14
2022-09-12T10:19:01.436Z,21.05
2022-09-12T10:21:01.439Z,20.93
2022-09-12T10:22:01.420Z,20.86
2022-09-12T10:23:01.393Z,20.76
2022-09-12T10:24:01.399Z,20.68
2022-09-12T10:25:01.384Z,20.64
2022-09-12T10:26:01.390Z,20.61
2022-09-12T10:27:01.358Z,20.61
2022-09-12T10:28:01.355Z,20.59
2022-09-12T10:29:01.321Z,20.51
2022-09-12T10:30:01.357Z,20.47
2022-09-12T10:31:01.352Z,20.47
2022-09-12T10:32:01.302Z,20.47
2022-09-12T10:33:01.298Z,20.46
2022-09-12T10:34:01.300Z,20.42
2022-09-12T10:35:01.284Z,20.41
2022-09-12T10:36:01.282Z,20.33
2022-09-12T10:37:01.248Z,20.27
2022-09-12T10:38:01.252Z,20.23
2022-09-12T10:39:01.238Z,20.20
2022-09-12T10:40:01.266Z,20.16
2022-09-12T10:41:01.219Z,20.16
2022-09-12T10:42:01.214Z,20.16
2022-09-12T10:43:01.187Z,20.13
2022-09-12T10:44:01.192Z,20.13
2022-09-12T10:45:01.173Z,20.12
2022-09-12T10:46:01.214Z,20.08
2022-09-12T10:47:01.143Z,20.05
2022-09-12T10:48:05.466Z,20.05
2022-09-12T10:49:01.140Z,20.10
2022-09-12T10:50:01.126Z,20.20
2022-09-12T10:51:01.094Z,20.24
2022-09-12T10:52:01.121Z,20.28
2022-09-12T10:53:01.082Z,20.34
2022-09-12T10:54:01.078Z,20.42
2022-09-12T10:55:01.081Z,20.41
2022-09-12T10:56:01.055Z,20.38
2022-09-12T10:57:01.041Z,20.31
2022-09-12T10:58:01.028Z,20.31
2022-09-12T10:59:01.015Z,20.34
2022-09-12T11:00:01.451Z,20.33
2022-09-12T11:01:01.049Z,20.38
2022-09-12T11:02:01.118Z,20.38
2022-09-12T11:03:00.980Z,20.39
2022-09-12T11:04:00.990Z,20.33
2022-09-12T11:05:00.956Z,20.34
2022-09-12T11:06:00.953Z,20.33
2022-09-12T11:07:00.941Z,20.31
2022-09-12T11:08:00.959Z,20.30
2022-09-12T11:09:00.957Z,20.33
2022-09-12T11:10:00.912Z,20.31
2022-09-12T11:11:00.886Z,20.33
2022-09-12T11:12:00.884Z,20.33
2022-09-12T11:13:00.878Z,20.35
2022-09-12T11:14:00.875Z,20.39
2022-09-12T11:15:00.877Z,20.43
2022-09-12T11:16:00.938Z,20.43
2022-09-12T11:17:00.841Z,20.46
2022-09-12T11:18:00.833Z,20.42
2022-09-12T11:19:00.896Z,20.42
2022-09-12T11:20:00.838Z,20.43
2022-09-12T11:21:00.792Z,20.39
2022-09-12T11:22:00.793Z,20.41
2022-09-12T11:23:00.780Z,20.41
2022-09-12T11:24:00.777Z,20.39
2022-09-12T11:25:00.752Z,20.34
2022-09-12T11:26:00.750Z,20.38
2022-09-12T11:27:00.748Z,20.43
2022-09-12T11:28:00.724Z,20.49
2022-09-12T11:29:00.748Z,20.49
2022-09-12T11:30:00.693Z,20.47
2022-09-12T11:31:00.855Z,20.49
2022-09-12T11:32:00.670Z,20.47
2022-09-12T11:33:00.671Z,20.47
2022-09-12T11:34:00.654Z,20.51
2022-09-12T11:35:00.647Z,20.54
2022-09-12T11:36:00.649Z,20.51
2022-09-12T11:37:00.645Z,20.46
2022-09-12T11:38:00.609Z,20.46
2022-09-12T11:39:00.609Z,20.46
2022-09-12T11:40:00.661Z,20.42
2022-09-12T11:41:00.614Z,20.42
2022-09-12T11:42:00.586Z,20.42
2022-09-12T11:43:00.599Z,20.39
2022-09-12T11:44:00.560Z,20.35
2022-09-12T11:45:00.549Z,20.41
2022-09-12T11:46:00.596Z,20.42
2022-09-12T11:47:00.541Z,20.41
2022-09-12T11:48:00.523Z,20.41
2022-09-12T11:49:00.517Z,20.42
2022-09-12T11:50:00.487Z,20.46
2022-09-12T11:51:00.501Z,20.46
2022-09-12T11:52:00.468Z,20.42
2022-09-12T11:53:00.481Z,20.42
2022-09-12T11:54:00.449Z,20.42
2022-09-12T11:55:00.614Z,20.42
2022-09-12T11:56:00.449Z,20.42
2022-09-12T11:57:00.439Z,20.41
2022-09-12T11:58:00.451Z,20.42
2022-09-12T11:58:59.392Z,20.47
2022-09-12T12:00:00.551Z,20.50
2022-09-12T12:01:00.416Z,20.54
2022-09-12T12:02:00.504Z,20.56
2022-09-12T12:03:00.366Z,20.64
2022-09-12T12:04:00.414Z,20.65
2022-09-12T12:05:00.357Z,20.69
2022-09-12T12:06:00.333Z,20.72
2022-09-12T12:07:00.353Z,20.74
2022-09-12T12:08:00.315Z,20.79
2022-09-12T12:09:00.320Z,20.83
2022-09-12T12:10:00.318Z,20.87
2022-09-12T12:11:00.287Z,20.93
2022-09-12T12:12:00.337Z,20.95
2022-09-12T12:13:00.273Z,20.90
2022-09-12T12:14:00.253Z,20.86
2022-09-12T12:15:00.261Z,20.83
2022-09-12T12:16:00.336Z,20.79
2022-09-12T12:17:00.246Z,20.72
2022-09-12T12:18:00.204Z,20.68
2022-09-12T12:19:00.200Z,20.65
2022-09-12T12:20:05.558Z,20.69
2022-09-12T12:21:00.215Z,20.74
2022-09-12T12:22:00.173Z,20.77
2022-09-12T12:23:00.159Z,20.83
2022-09-12T12:24:00.146Z,20.84
2022-09-12T12:25:00.160Z,20.87
2022-09-12T12:26:00.123Z,20.84
2022-09-12T12:27:00.122Z,20.84
2022-09-12T12:28:00.133Z,20.83
2022-09-12T12:29:00.106Z,20.80
2022-09-12T12:30:00.104Z,20.77
2022-09-12T12:31:00.168Z,20.76
2022-09-12T12:32:00.074Z,20.72
2022-09-12T12:33:00.058Z,20.71
2022-09-12T12:34:00.047Z,20.69
2022-09-12T12:35:00.096Z,20.69
2022-09-12T12:36:00.027Z,20.68
2022-09-12T12:37:03.194Z,20.66
2022-09-12T12:38:00.003Z,20.64
2022-09-12T12:38:59.996Z,20.62
2022-09-12T12:40:00.039Z,20.56
2022-09-12T12:40:59.976Z,20.50
2022-09-12T12:41:59.951Z,20.49
2022-09-12T12:42:59.946Z,20.49
2022-09-12T12:43:59.928Z,20.50
2022-09-12T12:44:59.950Z,20.54
2022-09-12T12:45:59.971Z,20.58
2022-09-12T12:46:59.943Z,20.61
2022-09-12T12:47:59.912Z,20.65
2022-09-12T12:48:59.895Z,20.71
2022-09-12T12:49:59.893Z,20.77
2022-09-12T12:50:59.877Z,20.80
2022-09-12T12:51:59.859Z,20.81
2022-09-12T12:52:59.852Z,20.83
2022-09-12T12:53:59.829Z,20.83
2022-09-12T12:54:59.849Z,20.81
2022-09-12T12:55:59.808Z,20.77
2022-09-12T12:56:59.816Z,20.80
2022-09-12T12:57:59.786Z,20.86
2022-09-12T12:58:59.820Z,20.86
2022-09-12T12:59:59.782Z,20.81